| Date | Time | Temp. (oF) | Dew Point (oF) | Rel. Hum. (%) | Press. (in.) | Wind Dir. | Wind Speed (mph) | Hourly Rainfall (in.) |
|
|---|---|---|---|---|---|---|---|---|---|
| 1 | 08/13 | 00:00 | 70 | 68 | 94 | 29.88 | E | 9 | 0.00 |
| 2 | 08/12 | 23:00 | 70 | 67 | 93 | 29.88 | SE | 9 | 0.00 |
| 3 | 08/12 | 22:00 | 70 | 68 | 94 | 29.87 | ENE | 10 | 0.00 |
| 4 | 08/12 | 21:00 | 70 | 69 | 97 | 29.85 | ENE | 8 | 0.00 |
| 5 | 08/12 | 20:00 | 70 | 68 | 96 | 29.82 | E | 17 | 0.00 |
| 6 | 08/12 | 19:00 | 70 | 68 | 94 | 29.80 | ESE | 10 | 0.02 |
| 7 | 08/12 | 18:00 | 71 | 68 | 92 | 29.79 | ESE | 7 | 0.06 |
| 8 | 08/12 | 17:00 | 73 | 70 | 91 | 29.77 | NE | 8 | 0.04 |
| 9 | 08/12 | 16:00 | 82 | 73 | 75 | 29.75 | ENE | 4 | 0.00 |
| 10 | 08/12 | 15:00 | 84 | 72 | 68 | 29.76 | SSW | 4 | 0.00 |
| 11 | 08/12 | 14:00 | 85 | 74 | 70 | 29.76 | SW | 4 | 0.00 |
| 12 | 08/12 | 13:00 | 82 | 74 | 79 | 29.78 | SE | 7 | 0.00 |
| 13 | 08/12 | 12:00 | 81 | 73 | 79 | 29.80 | SSW | 5 | 0.00 |
| 14 | 08/12 | 11:00 | 79 | 74 | 86 | 29.81 | SE | 7 | 0.00 |
| 15 | 08/12 | 10:00 | 76 | 75 | 98 | 29.80 | SE | 3 | 0.00 |
| 16 | 08/12 | 09:00 | 74 | 73 | 99 | 29.78 | SE | 4 | 0.12 |
| 17 | 08/12 | 08:00 | 74 | 73 | 98 | 29.82 | ESE | 5 | 0.29 |
| 18 | 08/12 | 07:00 | 75 | 73 | 96 | 29.82 | NE | 0 | 0.08 |
| 19 | 08/12 | 06:00 | 75 | 73 | 94 | 29.80 | ENE | 3 | 0.00 |
| 20 | 08/12 | 05:00 | 75 | 72 | 92 | 29.79 | ESE | 0 | 0.00 |
| 21 | 08/12 | 04:00 | 75 | 70 | 87 | 29.80 | ESE | 0 | 0.00 |
| 22 | 08/12 | 03:00 | 77 | 72 | 85 | 29.80 | ESE | 0 | 0.00 |
| 23 | 08/12 | 02:00 | 77 | 72 | 85 | 29.80 | ESE | 0 | 0.00 |
| 24 | 08/12 | 01:00 | 78 | 72 | 84 | 29.80 | SSW | 0 | 0.00 |